CYNR

METAR CYNR 240100Z AUTO 01004KT 9SM CLR 21/01 A3013 RMK AO2 SLP200
METAR
LOCATION
CYNR
DATE - TIME
240100Z
WIND
010 TRUE @ 4 KNOTS
VISIBILITY
9SM
RUNWAY VISUAL RANGE
NOT REPORTED
WEATHER
CLOUDINESS
CLR
TEMP / DEWPOINT
21 ºC / 1 ºC
ALTIMETER
30.13 in. Hg
RECENT WEATHER
NOT REPORTED
WIND SHEAR
NOT REPORTED
REMARKS
RMK AO2 SLP200
SEA LEVEL PRESSURE: hPa

CYNR

METAR CYNR 240000Z AUTO 13004KT 070V180 9SM BKN130 21/03 A3013 RMK AO2 SLP202
METAR
LOCATION
CYNR
DATE - TIME
240000Z
WIND
130 TRUE @ 4 KNOTS VARYING 070 TO 180
VISIBILITY
9SM
RUNWAY VISUAL RANGE
NOT REPORTED
WEATHER
CLOUDINESS
BKN130
TEMP / DEWPOINT
21 ºC / 3 ºC
ALTIMETER
30.13 in. Hg
RECENT WEATHER
NOT REPORTED
WIND SHEAR
NOT REPORTED
REMARKS
RMK AO2 SLP202
SEA LEVEL PRESSURE: hPa

CYNR

METAR CYNR 232300Z AUTO 10002KT 9SM BKN082 BKN120 21/03 A3013 RMK AO2 SLP205
METAR
LOCATION
CYNR
DATE - TIME
232300Z
WIND
100 TRUE @ 2 KNOTS
VISIBILITY
9SM
RUNWAY VISUAL RANGE
NOT REPORTED
WEATHER
CLOUDINESS
BKN082 BKN120
TEMP / DEWPOINT
21 ºC / 3 ºC
ALTIMETER
30.13 in. Hg
RECENT WEATHER
NOT REPORTED
WIND SHEAR
NOT REPORTED
REMARKS
RMK AO2 SLP205
SEA LEVEL PRESSURE: hPa

Your time UTC time
 
 
Weather data provided by AXYS Technologies Inc., www.axystechnologies.com
 
Station History